createdAt,value
2022-07-31T00:00:33.530Z,1.85
2022-07-31T00:03:01.468Z,1.63
2022-07-31T00:05:29.242Z,1.40
2022-07-31T00:08:02.372Z,1.25
2022-07-31T00:10:29.965Z,2.15
2022-07-31T00:12:57.337Z,1.55
2022-07-31T00:15:25.170Z,1.83
2022-07-31T00:18:17.198Z,2.13
2022-07-31T00:20:45.116Z,2.90
2022-07-31T00:23:12.609Z,3.00
2022-07-31T00:25:47.095Z,1.95
2022-07-31T00:28:41.871Z,1.50
2022-07-31T00:31:09.556Z,1.52
2022-07-31T00:33:36.492Z,1.70
2022-07-31T00:36:04.267Z,1.50
2022-07-31T00:38:31.845Z,1.17
2022-07-31T00:41:24.568Z,1.55
2022-07-31T00:43:52.196Z,1.70
2022-07-31T00:46:19.831Z,1.90
2022-07-31T00:51:41.912Z,2.42
2022-07-31T00:54:36.304Z,1.55
2022-07-31T00:57:06.187Z,1.70
2022-07-31T00:59:34.510Z,1.83
2022-07-31T01:02:01.813Z,1.90
2022-07-31T01:04:31.341Z,2.35
2022-07-31T01:07:01.391Z,1.67
2022-07-31T01:09:29.699Z,1.52
2022-07-31T01:12:13.179Z,1.70
2022-07-31T01:14:47.915Z,1.55
2022-07-31T01:17:18.406Z,2.10
2022-07-31T01:19:48.355Z,2.10
2022-07-31T01:22:50.931Z,2.15
2022-07-31T01:25:37.218Z,1.50
2022-07-31T01:28:56.348Z,1.33
2022-07-31T01:31:34.900Z,1.37
2022-07-31T01:34:23.308Z,1.48
2022-07-31T01:37:28.668Z,2.03
2022-07-31T01:40:28.898Z,1.30
2022-07-31T01:43:33.600Z,1.70
2022-07-31T01:46:05.245Z,2.05
2022-07-31T01:48:35.778Z,3.00
2022-07-31T01:51:04.915Z,3.10
2022-07-31T01:53:58.092Z,1.45
2022-07-31T01:56:26.959Z,1.42
2022-07-31T01:58:57.551Z,1.50
2022-07-31T02:01:44.440Z,1.45
2022-07-31T02:04:17.053Z,1.20
2022-07-31T02:06:49.245Z,1.33
2022-07-31T02:09:19.742Z,27.75
2022-07-31T02:11:54.627Z,7.82
2022-07-31T02:14:25.228Z,4.20
2022-07-31T02:17:22.248Z,2.15
2022-07-31T02:20:13.550Z,1.38
2022-07-31T02:22:41.746Z,1.50
2022-07-31T02:25:35.781Z,1.42
2022-07-31T02:31:02.829Z,1.60
2022-07-31T02:33:32.569Z,1.95
2022-07-31T02:36:02.572Z,1.65
2022-07-31T02:38:31.320Z,1.80
2022-07-31T02:43:54.018Z,1.20
2022-07-31T02:46:23.325Z,2.00
2022-07-31T02:49:17.101Z,2.33
2022-07-31T02:51:44.750Z,2.30
2022-07-31T02:54:40.066Z,2.05
2022-07-31T02:57:07.839Z,1.38
2022-07-31T02:59:39.620Z,1.70
2022-07-31T03:02:13.411Z,2.13
2022-07-31T03:05:33.038Z,2.10
2022-07-31T03:08:25.728Z,2.13
2022-07-31T03:10:56.322Z,1.75
2022-07-31T03:13:30.482Z,2.50
2022-07-31T03:15:58.737Z,1.60
2022-07-31T03:18:27.228Z,2.53
2022-07-31T03:24:14.729Z,1.75
2022-07-31T03:26:42.312Z,2.08
2022-07-31T03:29:41.199Z,1.92
2022-07-31T03:32:01.494Z,1.85
2022-07-31T03:34:30.220Z,1.80
2022-07-31T03:37:03.613Z,2.10
2022-07-31T03:39:31.930Z,2.75
2022-07-31T03:42:05.811Z,3.40
2022-07-31T03:44:59.630Z,2.92
2022-07-31T03:48:20.235Z,2.67
2022-07-31T03:53:47.445Z,2.90
2022-07-31T03:56:35.878Z,2.70
2022-07-31T03:59:04.700Z,12.15
2022-07-31T04:01:56.858Z,9.10
2022-07-31T04:05:09.512Z,5.90
2022-07-31T04:08:04.009Z,4.13
2022-07-31T04:10:58.175Z,2.50
2022-07-31T04:13:26.079Z,2.60
2022-07-31T04:15:53.249Z,2.97
2022-07-31T04:18:21.011Z,2.67
2022-07-31T04:20:49.761Z,2.70
2022-07-31T04:23:17.502Z,3.35
2022-07-31T04:26:03.779Z,2.95
2022-07-31T04:28:38.543Z,2.85
2022-07-31T04:31:05.948Z,2.58
2022-07-31T04:33:47.352Z,2.92
2022-07-31T04:36:29.668Z,3.25
2022-07-31T04:39:02.038Z,2.70
2022-07-31T04:41:30.909Z,2.80
2022-07-31T04:43:59.937Z,2.80
2022-07-31T04:46:58.179Z,2.55
2022-07-31T04:49:51.210Z,3.05
2022-07-31T04:52:19.720Z,2.60
2022-07-31T04:55:14.386Z,3.70
2022-07-31T04:57:41.920Z,2.70
2022-07-31T05:00:10.615Z,2.50
2022-07-31T05:08:50.310Z,2.80
2022-07-31T05:11:24.068Z,2.35
2022-07-31T05:14:19.329Z,2.40
2022-07-31T05:17:12.886Z,2.97
2022-07-31T05:19:56.073Z,2.90
2022-07-31T05:22:46.426Z,3.03
2022-07-31T05:25:43.264Z,2.47
2022-07-31T05:28:35.566Z,2.80
2022-07-31T05:31:02.935Z,3.08
2022-07-31T05:33:35.319Z,2.88
2022-07-31T05:36:04.301Z,2.72
2022-07-31T05:38:32.119Z,2.95
2022-07-31T05:41:22.044Z,3.25
2022-07-31T05:44:08.329Z,2.67
2022-07-31T05:46:42.807Z,3.53
2022-07-31T05:49:35.710Z,2.70
2022-07-31T05:52:03.325Z,3.25
2022-07-31T05:55:20.240Z,2.70
2022-07-31T05:58:16.836Z,2.95
2022-07-31T06:00:47.138Z,2.65
2022-07-31T06:03:52.028Z,2.80
2022-07-31T06:06:31.820Z,2.92
2022-07-31T06:09:04.369Z,2.58
2022-07-31T06:11:36.949Z,3.03
2022-07-31T06:14:04.859Z,2.20
2022-07-31T06:16:54.464Z,3.47
2022-07-31T06:19:24.399Z,2.67
2022-07-31T06:21:54.006Z,3.10
2022-07-31T06:24:22.901Z,2.55
2022-07-31T06:26:51.838Z,2.50
2022-07-31T06:29:19.594Z,2.67
2022-07-31T06:32:08.920Z,2.70
2022-07-31T06:34:36.307Z,2.80
2022-07-31T06:37:09.899Z,2.92
2022-07-31T06:39:54.370Z,2.40
2022-07-31T06:43:06.683Z,2.78
2022-07-31T06:45:53.130Z,2.35
2022-07-31T06:48:40.000Z,2.58
2022-07-31T06:54:05.100Z,2.75
2022-07-31T06:56:34.145Z,3.17
2022-07-31T06:59:01.904Z,2.70
2022-07-31T07:01:29.891Z,2.78
2022-07-31T07:03:58.201Z,3.00
2022-07-31T07:06:26.648Z,2.70
2022-07-31T07:08:56.653Z,2.55
2022-07-31T07:11:54.474Z,2.38
2022-07-31T07:14:22.863Z,2.47
2022-07-31T07:16:50.390Z,2.50
2022-07-31T07:19:17.818Z,2.55
2022-07-31T07:21:45.705Z,2.10
2022-07-31T07:24:14.033Z,2.30
2022-07-31T07:26:54.066Z,2.80
2022-07-31T07:29:22.975Z,2.58
2022-07-31T07:31:50.824Z,2.40
2022-07-31T07:34:18.874Z,2.30
2022-07-31T07:36:47.514Z,2.60
2022-07-31T07:39:40.307Z,5.05
2022-07-31T07:42:07.867Z,2.65
2022-07-31T07:44:35.277Z,2.97
2022-07-31T07:47:05.147Z,2.67
2022-07-31T07:49:36.060Z,5.43
2022-07-31T07:52:52.314Z,2.63
2022-07-31T07:55:42.505Z,3.22
2022-07-31T07:58:28.884Z,3.10
2022-07-31T08:01:21.834Z,3.17
2022-07-31T08:03:53.791Z,2.60
2022-07-31T08:06:23.464Z,2.40
2022-07-31T08:08:51.128Z,2.83
2022-07-31T08:11:43.783Z,2.78
2022-07-31T08:14:20.366Z,2.60
2022-07-31T08:17:17.365Z,2.60
2022-07-31T08:19:49.474Z,3.13
2022-07-31T08:22:19.529Z,2.90
2022-07-31T08:24:47.251Z,3.33
2022-07-31T08:27:39.266Z,2.80
2022-07-31T08:30:34.664Z,2.80
2022-07-31T08:33:03.087Z,2.92
2022-07-31T08:35:37.434Z,2.88
2022-07-31T08:38:06.664Z,3.22
2022-07-31T08:40:43.235Z,2.92
2022-07-31T08:44:00.381Z,2.65
2022-07-31T08:46:27.501Z,3.13
2022-07-31T08:53:02.719Z,3.20
2022-07-31T08:55:59.656Z,3.42
2022-07-31T08:58:30.644Z,2.97
2022-07-31T09:00:58.175Z,2.92
2022-07-31T09:03:25.809Z,3.65
2022-07-31T09:05:59.223Z,2.97
2022-07-31T09:08:52.103Z,3.50
2022-07-31T09:11:50.112Z,3.38
2022-07-31T09:14:49.360Z,3.50
2022-07-31T09:17:17.184Z,4.00
2022-07-31T09:19:54.191Z,3.75
2022-07-31T09:22:47.489Z,3.65
2022-07-31T09:26:05.950Z,3.10
2022-07-31T09:28:43.499Z,3.35
2022-07-31T09:31:12.371Z,3.10
2022-07-31T09:33:59.830Z,3.53
2022-07-31T09:36:36.190Z,3.67
2022-07-31T09:39:27.806Z,3.70
2022-07-31T09:42:16.983Z,3.45
2022-07-31T09:45:18.046Z,3.60
2022-07-31T09:47:46.122Z,3.67
2022-07-31T09:50:14.434Z,3.60
2022-07-31T09:55:34.502Z,3.45
2022-07-31T09:58:02.120Z,3.92
2022-07-31T10:03:31.128Z,3.53
2022-07-31T10:05:59.558Z,3.08
2022-07-31T10:08:29.269Z,3.70
2022-07-31T10:11:25.930Z,3.78
2022-07-31T10:14:16.905Z,3.45
2022-07-31T10:17:10.456Z,2.85
2022-07-31T10:20:06.813Z,3.40
2022-07-31T10:23:02.346Z,3.28
2022-07-31T10:25:44.128Z,3.47
2022-07-31T10:28:26.150Z,4.50
2022-07-31T10:30:54.327Z,3.00
2022-07-31T10:33:43.130Z,6.68
2022-07-31T10:36:35.396Z,3.38
2022-07-31T10:43:10.835Z,2.77
2022-07-31T10:45:53.612Z,2.80
2022-07-31T10:52:11.561Z,3.00
2022-07-31T10:55:00.110Z,3.63
2022-07-31T10:57:55.927Z,3.42
2022-07-31T11:00:46.010Z,3.45
2022-07-31T11:03:23.610Z,3.47
2022-07-31T11:06:10.015Z,2.95
2022-07-31T11:09:03.067Z,2.83
2022-07-31T11:12:03.366Z,3.10
2022-07-31T11:14:51.373Z,3.17
2022-07-31T11:18:20.938Z,3.28
2022-07-31T11:24:14.178Z,3.13
2022-07-31T11:27:03.555Z,3.08
2022-07-31T11:30:00.008Z,2.80
2022-07-31T11:32:32.576Z,2.72
2022-07-31T11:35:00.158Z,2.55
2022-07-31T11:37:46.513Z,3.00
2022-07-31T11:40:44.316Z,2.97
2022-07-31T11:43:25.601Z,2.40
2022-07-31T11:45:55.492Z,2.70
2022-07-31T11:48:49.108Z,2.40
2022-07-31T11:51:21.921Z,4.00
2022-07-31T11:53:57.363Z,2.67
2022-07-31T11:56:27.701Z,2.85
2022-07-31T11:58:58.175Z,2.80
2022-07-31T12:01:28.472Z,2.90
2022-07-31T12:03:59.723Z,3.30
2022-07-31T12:06:38.014Z,3.25
2022-07-31T12:09:06.226Z,3.00
2022-07-31T12:11:34.524Z,3.30
2022-07-31T12:14:02.513Z,5.90
2022-07-31T12:16:40.425Z,4.18
2022-07-31T12:19:08.190Z,3.33
2022-07-31T12:21:39.829Z,3.72
2022-07-31T12:24:14.949Z,3.08
2022-07-31T12:26:55.217Z,3.90
2022-07-31T12:29:33.959Z,3.78
2022-07-31T12:32:02.986Z,2.60
2022-07-31T12:34:38.733Z,3.47
2022-07-31T12:37:08.511Z,3.15
2022-07-31T12:39:53.782Z,3.42
2022-07-31T12:42:29.192Z,3.35
2022-07-31T12:45:20.160Z,3.53
2022-07-31T12:47:51.229Z,3.55
2022-07-31T12:50:21.037Z,3.42
2022-07-31T12:53:14.307Z,3.40
2022-07-31T12:55:41.940Z,3.50
2022-07-31T12:58:11.655Z,3.55
2022-07-31T13:00:40.159Z,3.70
2022-07-31T13:03:11.473Z,3.42
2022-07-31T13:05:39.460Z,3.72
2022-07-31T13:08:08.762Z,4.18
2022-07-31T13:10:39.557Z,3.13
2022-07-31T13:13:07.224Z,3.50
2022-07-31T13:15:34.646Z,3.30
2022-07-31T13:18:05.337Z,3.17
2022-07-31T13:20:58.028Z,3.08
2022-07-31T13:23:55.901Z,4.53
2022-07-31T13:26:24.403Z,3.67
2022-07-31T13:28:52.392Z,3.58
2022-07-31T13:31:19.480Z,3.25
2022-07-31T13:33:46.421Z,2.92
2022-07-31T13:36:14.208Z,3.45
2022-07-31T13:38:41.678Z,3.03
2022-07-31T13:41:21.357Z,4.18
2022-07-31T13:44:00.247Z,3.00
2022-07-31T13:46:29.236Z,2.95
2022-07-31T13:49:21.938Z,3.50
2022-07-31T13:51:49.333Z,3.45
2022-07-31T13:54:41.358Z,3.20
2022-07-31T13:57:08.923Z,2.75
2022-07-31T13:59:36.266Z,3.65
2022-07-31T14:02:05.720Z,3.67
2022-07-31T14:04:38.855Z,6.82
2022-07-31T14:07:13.060Z,3.40
2022-07-31T14:09:55.253Z,3.60
2022-07-31T14:12:48.908Z,4.15
2022-07-31T14:15:18.593Z,3.22
2022-07-31T14:17:47.315Z,3.53
2022-07-31T14:20:14.643Z,5.10
2022-07-31T14:22:42.603Z,4.78
2022-07-31T14:25:12.665Z,3.90
2022-07-31T14:27:40.279Z,3.67
2022-07-31T14:30:09.344Z,3.88
2022-07-31T14:32:38.021Z,3.95
2022-07-31T14:35:08.481Z,3.95
2022-07-31T14:37:37.328Z,4.43
2022-07-31T14:40:06.035Z,4.00
2022-07-31T14:42:58.946Z,4.38
2022-07-31T14:45:27.126Z,3.40
2022-07-31T14:47:55.521Z,4.18
2022-07-31T14:50:24.285Z,4.07
2022-07-31T14:52:56.959Z,4.30
2022-07-31T14:55:29.763Z,4.32
2022-07-31T14:57:57.061Z,3.70
2022-07-31T15:00:24.158Z,4.15
2022-07-31T15:03:16.133Z,5.57
2022-07-31T15:06:41.397Z,4.75
2022-07-31T15:08:56.217Z,4.32
2022-07-31T15:12:01.007Z,4.45
2022-07-31T15:14:30.013Z,4.13
2022-07-31T15:16:57.779Z,4.53
2022-07-31T15:19:25.539Z,4.22
2022-07-31T15:22:10.227Z,4.32
2022-07-31T15:24:48.266Z,4.10
2022-07-31T15:27:42.675Z,4.30
2022-07-31T15:30:11.167Z,5.05
2022-07-31T15:32:39.430Z,4.82
2022-07-31T15:35:34.342Z,4.65
2022-07-31T15:38:03.447Z,5.85
2022-07-31T15:40:31.250Z,6.40
2022-07-31T15:42:58.768Z,7.05
2022-07-31T15:45:26.312Z,7.05
2022-07-31T15:47:54.173Z,8.82
2022-07-31T15:50:46.173Z,10.10
2022-07-31T15:53:16.257Z,11.02
2022-07-31T15:55:44.379Z,10.95
2022-07-31T15:58:13.061Z,10.27
2022-07-31T16:00:40.341Z,8.73
2022-07-31T16:03:50.802Z,13.63
2022-07-31T16:06:28.137Z,8.85
2022-07-31T16:09:00.418Z,9.07
2022-07-31T16:12:03.784Z,8.95
2022-07-31T16:14:15.607Z,7.88
2022-07-31T16:16:45.927Z,10.57
2022-07-31T16:19:13.777Z,10.45
2022-07-31T16:21:42.911Z,8.88
2022-07-31T16:24:10.238Z,8.57
2022-07-31T16:26:40.144Z,8.10
2022-07-31T16:29:07.753Z,8.05
2022-07-31T16:31:45.103Z,8.35
2022-07-31T16:34:13.380Z,6.90
2022-07-31T16:36:41.374Z,7.75
2022-07-31T16:39:19.911Z,6.60
2022-07-31T16:41:54.712Z,7.90
2022-07-31T16:44:22.780Z,6.68
2022-07-31T16:46:54.697Z,7.03
2022-07-31T16:49:47.357Z,6.93
2022-07-31T16:52:15.864Z,7.53
2022-07-31T16:54:44.251Z,7.25
2022-07-31T16:57:12.430Z,7.43
2022-07-31T16:59:56.989Z,7.63
2022-07-31T17:02:28.063Z,7.72
2022-07-31T17:04:55.449Z,6.40
2022-07-31T17:07:23.671Z,6.75
2022-07-31T17:09:51.093Z,6.47
2022-07-31T17:12:20.575Z,7.75
2022-07-31T17:14:48.674Z,8.32
2022-07-31T17:17:46.209Z,8.40
2022-07-31T17:20:15.078Z,8.73
2022-07-31T17:22:43.541Z,8.85
2022-07-31T17:25:10.913Z,9.00
2022-07-31T17:27:38.424Z,9.77
2022-07-31T17:30:07.066Z,9.30
2022-07-31T17:32:34.721Z,10.23
2022-07-31T17:35:02.641Z,10.52
2022-07-31T17:37:30.526Z,10.65
2022-07-31T17:39:59.210Z,10.75
2022-07-31T17:42:27.090Z,11.32
2022-07-31T17:44:56.340Z,10.50
2022-07-31T17:47:25.832Z,10.38
2022-07-31T17:49:54.167Z,10.55
2022-07-31T17:52:21.634Z,10.98
2022-07-31T17:54:51.566Z,11.98
2022-07-31T17:57:19.738Z,11.00
2022-07-31T17:59:50.081Z,11.15
2022-07-31T18:02:42.221Z,12.88
2022-07-31T18:05:12.502Z,11.77
2022-07-31T18:08:04.646Z,11.73
2022-07-31T18:10:57.479Z,11.80
2022-07-31T18:13:24.976Z,11.95
2022-07-31T18:16:18.290Z,12.20
2022-07-31T18:18:46.380Z,12.30
2022-07-31T18:21:14.400Z,12.27
2022-07-31T18:24:08.388Z,13.32
2022-07-31T18:26:37.452Z,12.45
2022-07-31T18:29:09.091Z,13.85
2022-07-31T18:31:36.489Z,12.75
2022-07-31T18:34:05.350Z,13.50
2022-07-31T18:39:49.472Z,12.75
2022-07-31T18:42:17.434Z,12.45
2022-07-31T18:44:45.112Z,12.20
2022-07-31T18:47:12.877Z,12.13
2022-07-31T18:51:01.760Z,12.55
2022-07-31T18:52:53.181Z,13.02
2022-07-31T18:55:47.310Z,12.45
2022-07-31T18:58:14.758Z,12.60
2022-07-31T19:00:41.926Z,12.40
2022-07-31T19:03:14.304Z,11.50
2022-07-31T19:05:42.910Z,12.75
2022-07-31T19:08:10.371Z,11.77
2022-07-31T19:13:54.570Z,11.73
2022-07-31T19:16:22.732Z,11.38
2022-07-31T19:18:52.396Z,11.25
2022-07-31T19:21:41.210Z,10.65
2022-07-31T19:24:33.624Z,10.50
2022-07-31T19:27:01.102Z,11.07
2022-07-31T19:29:30.060Z,10.98
2022-07-31T19:31:59.447Z,10.45
2022-07-31T19:34:26.672Z,10.80
2022-07-31T19:37:21.390Z,10.07
2022-07-31T19:39:48.651Z,10.35
2022-07-31T19:42:15.927Z,9.90
2022-07-31T19:44:43.437Z,10.15
2022-07-31T19:47:10.751Z,10.00
2022-07-31T19:52:30.443Z,10.35
2022-07-31T19:54:57.878Z,9.38
2022-07-31T19:57:29.032Z,10.00
2022-07-31T19:59:56.720Z,9.85
2022-07-31T20:02:48.142Z,9.35
2022-07-31T20:08:08.362Z,10.02
2022-07-31T20:11:25.971Z,8.80
2022-07-31T20:13:53.900Z,9.15
2022-07-31T20:16:20.890Z,9.77
2022-07-31T20:18:49.071Z,9.23
2022-07-31T20:21:16.762Z,9.10
2022-07-31T20:23:45.143Z,8.93
2022-07-31T20:26:17.724Z,9.32
2022-07-31T20:28:45.896Z,9.02
2022-07-31T20:31:15.902Z,9.85
2022-07-31T20:33:57.770Z,9.63
2022-07-31T20:36:27.119Z,8.82
2022-07-31T20:38:55.498Z,9.10
2022-07-31T20:41:47.575Z,8.90
2022-07-31T20:44:15.238Z,8.93
2022-07-31T20:46:42.342Z,9.73
2022-07-31T20:49:19.838Z,9.73
2022-07-31T20:51:59.174Z,9.23
2022-07-31T20:54:52.057Z,9.65
2022-07-31T20:57:19.870Z,9.27
2022-07-31T20:59:47.434Z,9.00
2022-07-31T21:02:15.562Z,9.40
2022-07-31T21:04:47.909Z,8.57
2022-07-31T21:07:15.617Z,9.18
2022-07-31T21:09:43.061Z,9.43
2022-07-31T21:12:11.147Z,8.95
2022-07-31T21:14:38.976Z,9.20
2022-07-31T21:17:06.224Z,9.00
2022-07-31T21:19:34.211Z,9.40
2022-07-31T21:22:01.778Z,9.10
2022-07-31T21:24:29.621Z,9.57
2022-07-31T21:27:00.105Z,9.93
2022-07-31T21:29:28.556Z,8.75
2022-07-31T21:31:57.571Z,9.60
2022-07-31T21:34:25.610Z,8.90
2022-07-31T21:37:18.237Z,8.85
2022-07-31T21:39:52.484Z,8.70
2022-07-31T21:42:20.089Z,9.35
2022-07-31T21:44:48.095Z,8.60
2022-07-31T21:47:18.961Z,9.73
2022-07-31T21:49:53.046Z,9.57
2022-07-31T21:52:47.495Z,9.60
2022-07-31T21:55:39.809Z,9.13
2022-07-31T21:58:07.746Z,8.23
2022-07-31T22:00:35.410Z,9.15
2022-07-31T22:09:05.702Z,9.13
2022-07-31T22:11:33.898Z,8.68
2022-07-31T22:14:01.309Z,9.02
2022-07-31T22:16:28.230Z,9.05
2022-07-31T22:18:56.429Z,8.82
2022-07-31T22:21:49.484Z,9.10
2022-07-31T22:24:17.472Z,9.38
2022-07-31T22:27:08.764Z,7.65
2022-07-31T22:29:39.511Z,8.25
2022-07-31T22:32:07.884Z,8.90
2022-07-31T22:34:37.868Z,8.52
2022-07-31T22:37:06.239Z,7.32
2022-07-31T22:39:35.339Z,8.40
2022-07-31T22:42:03.907Z,7.82
2022-07-31T22:44:31.611Z,8.18
2022-07-31T22:47:07.676Z,8.00
2022-07-31T22:49:36.736Z,7.38
2022-07-31T22:52:07.393Z,7.72
2022-07-31T22:54:40.496Z,7.30
2022-07-31T22:57:08.405Z,6.78
2022-07-31T22:59:35.734Z,7.22
2022-07-31T23:02:05.096Z,7.35
2022-07-31T23:04:32.695Z,7.68
2022-07-31T23:07:00.760Z,7.07
2022-07-31T23:09:28.343Z,7.15
2022-07-31T23:11:56.571Z,7.22
2022-07-31T23:14:23.684Z,7.50
2022-07-31T23:16:52.350Z,6.70
2022-07-31T23:19:19.700Z,6.75
2022-07-31T23:21:47.605Z,6.45
2022-07-31T23:24:15.057Z,6.47
2022-07-31T23:26:43.052Z,6.95
2022-07-31T23:29:10.415Z,6.90
2022-07-31T23:31:38.503Z,7.60
2022-07-31T23:34:05.751Z,7.13
2022-07-31T23:36:33.371Z,7.38
2022-07-31T23:39:00.563Z,6.70
2022-07-31T23:41:46.783Z,7.43
2022-07-31T23:44:14.033Z,7.05
2022-07-31T23:46:45.729Z,6.93
2022-07-31T23:49:42.927Z,6.78
2022-07-31T23:52:11.459Z,6.45
2022-07-31T23:54:40.125Z,6.65
2022-07-31T23:57:08.845Z,6.50
2022-07-31T23:59:36.001Z,6.68
